Time;durP1;ratioP1;P1;durP2;ratioP2;P2;SDS_P1;SDS_P2;PMS_P1;PMS_P2;Temp;Humidity;BMP_temperature;BMP_pressure;BME280_temperature;BME280_humidity;BME280_pressure;Samples;Min_cycle;Max_cycle;Signal;HPM_P1;HPM_P2
2022/01/15 00:03:45;;;;;;;42.83;31.67;;;;;;;4.76;59.68;99391.22;8443284;28;20237;-69
2022/01/15 00:07:48;;;;;;;44.57;33.43;;;;;;;4.96;59.73;99383.53;8447959;28;20238;-68
2022/01/15 00:11:53;;;;;;;49.63;33.67;;;;;;;5.11;59.55;99384.41;8448029;28;20241;-68
2022/01/15 00:16:05;;;;;;;49.40;33.70;;;;;;;5.13;59.58;99375.81;8447657;28;20226;-68
2022/01/15 00:20:09;;;;;;;59.63;36.80;;;;;;;5.02;59.35;99388.66;8446529;28;20253;-69
2022/01/15 00:24:12;;;;;;;52.53;36.43;;;;;;;5.19;59.32;99370.69;8447027;28;20222;-69
2022/01/15 00:28:16;;;;;;;49.27;35.80;;;;;;;5.21;59.29;99378.41;8445159;28;20226;-68
2022/01/15 00:32:19;;;;;;;55.53;37.87;;;;;;;5.17;59.41;99361.28;8446546;28;20241;-68
2022/01/15 00:36:22;;;;;;;60.67;38.43;;;;;;;5.08;59.64;99380.97;8446551;28;20226;-67
2022/01/15 00:40:25;;;;;;;57.10;38.33;;;;;;;5.17;59.55;99364.69;8446428;28;20222;-68
2022/01/15 00:44:30;;;;;;;52.53;37.10;;;;;;;5.28;59.32;99362.97;8446631;28;20238;-67
2022/01/15 00:48:33;;;;;;;56.77;38.33;;;;;;;5.29;59.52;99361.25;8478124;28;20217;-67
2022/01/15 00:52:36;;;;;;;54.40;37.00;;;;;;;5.37;59.08;99358.69;8480017;28;20412;-68
2022/01/15 00:56:39;;;;;;;49.97;36.37;;;;;;;5.53;58.68;99350.09;8479722;28;20225;-68
2022/01/15 01:00:45;;;;;;;49.53;35.47;;;;;;;5.34;59.24;99351.84;8479751;28;20237;-68
2022/01/15 01:04:48;;;;;;;51.97;35.93;;;;;;;5.32;59.21;99345.84;8479630;28;20233;-68
2022/01/15 01:08:51;;;;;;;49.03;35.17;;;;;;;5.32;59.06;99351.00;8462970;28;20238;-68
2022/01/15 01:13:14;;;;;;;50.43;34.37;;;;;;;5.40;59.24;99346.69;8479792;28;20413;-68
2022/01/15 01:26:01;;;;;;;46.80;34.23;;;;;;;5.44;59.14;99352.69;8433038;28;20520;-68
2022/01/15 01:30:11;;;;;;;51.70;34.93;;;;;;;5.40;59.28;99349.25;8453345;28;20225;-68
2022/01/15 01:34:16;;;;;;;45.80;32.43;;;;;;;5.34;58.92;99351.00;8456030;28;20560;-68
2022/01/15 01:38:27;;;;;;;47.10;33.57;;;;;;;5.31;59.26;99348.41;8430897;28;20234;-67
2022/01/15 01:42:40;;;;;;;42.23;30.70;;;;;;;5.36;59.10;99337.28;8447514;28;20541;-67
2022/01/15 01:46:49;;;;;;;39.73;30.53;;;;;;;5.35;59.44;99342.41;8436921;28;20199;-71
2022/01/15 01:50:54;;;;;;;40.33;28.43;;;;;;;5.21;59.50;99335.56;8434233;28;20206;-68
2022/01/15 01:54:57;;;;;;;40.27;30.50;;;;;;;5.38;59.35;99330.44;8430085;28;20252;-68
2022/01/15 01:59:00;;;;;;;39.20;29.53;;;;;;;5.35;59.57;99322.75;8432208;28;20230;-68
2022/01/15 02:03:04;;;;;;;38.63;29.37;;;;;;;5.44;58.68;99322.69;8444917;28;20237;-68
2022/01/15 02:07:09;;;;;;;47.53;32.00;;;;;;;5.47;58.72;99320.13;8448107;28;20241;-68
2022/01/15 02:11:12;;;;;;;44.23;33.40;;;;;;;5.58;58.60;99308.97;8451625;28;20225;-68
2022/01/15 02:15:17;;;;;;;43.87;32.30;;;;;;;5.71;58.33;99308.06;8451530;28;20233;-68
2022/01/15 02:19:20;;;;;;;45.63;32.90;;;;;;;5.60;58.60;99297.84;8451149;28;20230;-68
2022/01/15 02:23:34;;;;;;;43.07;32.57;;;;;;;5.73;58.47;99297.78;8451469;28;20234;-68
2022/01/15 02:27:37;;;;;;;43.93;32.03;;;;;;;5.70;58.41;99296.09;8484688;28;20336;-68
2022/01/15 02:31:40;;;;;;;43.63;31.50;;;;;;;5.79;58.21;99292.66;8484758;28;20233;-68
2022/01/15 02:35:44;;;;;;;45.00;31.00;;;;;;;5.77;58.54;99292.66;8484724;28;20240;-68
2022/01/15 02:39:48;;;;;;;43.27;31.53;;;;;;;5.76;58.59;99293.50;8472541;28;20233;-68
2022/01/15 02:43:51;;;;;;;40.70;31.20;;;;;;;5.73;58.48;99284.94;8484437;28;20399;-68
2022/01/15 02:48:03;;;;;;;42.40;31.43;;;;;;;5.74;58.55;99297.78;8467063;28;20410;-68
2022/01/15 02:52:07;;;;;;;43.67;31.73;;;;;;;5.70;58.59;99288.38;8468548;28;20230;-68
2022/01/15 02:56:12;;;;;;;38.30;29.50;;;;;;;5.72;58.54;99281.53;8463936;28;20229;-68
2022/01/15 03:00:15;;;;;;;37.00;28.10;;;;;;;5.76;58.62;99280.63;8465778;28;20232;-68
2022/01/15 03:04:19;;;;;;;36.93;28.03;;;;;;;5.77;58.54;99278.91;8464863;28;20230;-68
2022/01/15 03:08:22;;;;;;;36.10;26.73;;;;;;;5.81;58.75;99271.19;8470904;28;20332;-68
2022/01/15 03:12:27;;;;;;;34.80;27.20;;;;;;;5.62;58.86;99273.00;8468876;28;20398;-68
2022/01/15 03:16:29;;;;;;;37.33;27.97;;;;;;;5.60;58.83;99272.13;8467458;28;20226;-68
2022/01/15 03:20:33;;;;;;;38.80;27.13;;;;;;;5.54;59.15;99266.16;8432308;28;20227;-68
2022/01/15 03:24:36;;;;;;;37.33;26.73;;;;;;;5.55;58.99;99270.44;8435909;28;20222;-69
2022/01/15 03:28:41;;;;;;;36.57;27.03;;;;;;;5.56;59.14;99269.56;8430129;28;20256;-68
2022/01/15 03:32:44;;;;;;;33.67;25.47;;;;;;;5.39;59.44;99267.06;8428454;28;20230;-68
2022/01/15 03:36:47;;;;;;;33.63;26.73;;;;;;;5.35;59.94;99273.06;8431804;28;20235;-68
2022/01/15 03:40:51;;;;;;;33.30;26.10;;;;;;;5.36;59.42;99275.63;8431661;28;20225;-68
2022/01/15 03:44:56;;;;;;;33.33;26.10;;;;;;;5.44;59.83;99262.75;8431949;28;20238;-68
2022/01/15 03:48:59;;;;;;;35.20;26.83;;;;;;;5.58;59.29;99271.28;8437630;28;20236;-68
2022/01/15 03:53:02;;;;;;;34.47;26.40;;;;;;;5.56;59.52;99272.13;8431155;28;20226;-68
2022/01/15 03:57:05;;;;;;;32.07;25.50;;;;;;;5.64;59.17;99273.84;8435275;28;20232;-68
2022/01/15 04:01:10;;;;;;;34.23;25.87;;;;;;;5.65;58.77;99272.13;8437108;28;20241;-68
2022/01/15 04:05:13;;;;;;;34.33;26.60;;;;;;;5.58;59.16;99261.00;8429064;28;20290;-68
2022/01/15 04:09:17;;;;;;;31.70;25.47;;;;;;;5.62;59.14;99265.28;8436259;28;20225;-68
2022/01/15 04:13:20;;;;;;;31.40;25.33;;;;;;;5.54;59.20;99268.72;8428107;28;20508;-68
2022/01/15 04:17:25;;;;;;;32.87;25.03;;;;;;;5.72;59.25;99252.41;8430846;28;20239;-68
2022/01/15 04:21:28;;;;;;;33.63;26.33;;;;;;;5.67;58.87;99263.56;8430868;28;20230;-68
2022/01/15 04:25:31;;;;;;;33.00;26.57;;;;;;;5.73;58.60;99269.50;8432154;28;20223;-69
2022/01/15 04:29:34;;;;;;;33.17;25.43;;;;;;;5.75;58.85;99270.34;8435687;28;20233;-68
2022/01/15 04:33:39;;;;;;;31.33;24.93;;;;;;;5.80;58.71;99259.19;8427523;28;20227;-68
2022/01/15 04:37:45;;;;;;;31.07;24.77;;;;;;;5.77;58.56;99264.38;8428098;28;20426;-68
2022/01/15 04:41:48;;;;;;;33.13;25.27;;;;;;;5.76;58.72;99256.66;8434375;28;20526;-68
2022/01/15 04:45:51;;;;;;;32.20;25.63;;;;;;;5.75;58.90;99260.94;8434380;28;20238;-68
2022/01/15 04:49:55;;;;;;;32.47;26.20;;;;;;;5.75;58.79;99247.22;8430324;28;20244;-68
2022/01/15 04:53:58;;;;;;;31.83;25.90;;;;;;;5.77;58.91;99250.63;8430572;28;20230;-68
2022/01/15 04:58:02;;;;;;;32.73;26.27;;;;;;;5.87;58.82;99252.31;8433502;28;20229;-68
2022/01/15 05:02:05;;;;;;;33.10;26.37;;;;;;;5.73;58.64;99247.25;8433442;28;20227;-68
2022/01/15 05:06:09;;;;;;;31.57;25.17;;;;;;;5.75;58.84;99253.25;8432530;28;20395;-68
2022/01/15 05:10:16;;;;;;;32.33;25.97;;;;;;;5.80;58.62;99248.91;8429761;28;20229;-68
2022/01/15 05:14:19;;;;;;;32.60;25.57;;;;;;;5.84;58.47;99242.88;8429393;28;20222;-68
2022/01/15 05:18:22;;;;;;;32.10;25.70;;;;;;;5.77;58.66;99238.66;8446699;28;20233;-68
2022/01/15 05:22:27;;;;;;;33.47;26.50;;;;;;;5.78;58.87;99232.66;8446576;28;20230;-68
2022/01/15 05:26:30;;;;;;;32.47;24.87;;;;;;;5.77;59.15;99227.50;8446591;28;20245;-68
2022/01/15 05:30:33;;;;;;;31.83;25.70;;;;;;;5.72;58.89;99235.25;8446247;28;20301;-68
2022/01/15 05:34:36;;;;;;;31.80;25.27;;;;;;;5.64;59.31;99235.28;8446291;28;20327;-67
2022/01/15 05:38:42;;;;;;;30.37;24.63;;;;;;;5.60;60.09;99238.72;8446479;28;20234;-68
2022/01/15 05:42:46;;;;;;;31.53;24.43;;;;;;;5.64;59.99;99230.16;8480403;28;20229;-68
2022/01/15 05:46:48;;;;;;;32.93;26.13;;;;;;;5.65;60.05;99236.13;8486593;28;20255;-68
2022/01/15 05:50:52;;;;;;;32.77;26.10;;;;;;;5.67;60.03;99229.25;8486399;28;20225;-68
2022/01/15 05:54:56;;;;;;;33.07;25.27;;;;;;;5.83;59.49;99228.34;8486121;28;20229;-68
2022/01/15 05:58:59;;;;;;;33.83;25.97;;;;;;;5.70;59.87;99220.72;8486386;28;20557;-68
2022/01/15 06:03:02;;;;;;;35.10;26.83;;;;;;;5.70;59.64;99216.41;8485993;28;20221;-68
2022/01/15 06:07:05;;;;;;;33.73;26.37;;;;;;;5.77;59.65;99214.66;8485992;28;20244;-67
2022/01/15 06:11:11;;;;;;;37.37;27.40;;;;;;;5.85;58.87;99224.03;8485565;28;20271;-68
2022/01/15 06:15:15;;;;;;;36.43;28.13;;;;;;;5.83;58.94;99212.91;8485762;28;20229;-68
2022/01/15 06:19:18;;;;;;;36.40;28.27;;;;;;;5.83;58.58;99217.22;8485694;28;20229;-68
2022/01/15 06:23:21;;;;;;;34.23;26.90;;;;;;;5.85;59.11;99216.34;8485412;28;20229;-68
2022/01/15 06:27:26;;;;;;;34.67;26.30;;;;;;;5.89;59.12;99222.31;8485253;28;20237;-68
2022/01/15 06:31:30;;;;;;;33.73;26.57;;;;;;;5.90;58.88;99220.59;8485293;28;20252;-68
2022/01/15 06:35:34;;;;;;;37.73;27.33;;;;;;;5.90;59.03;99220.59;8485025;28;20433;-68
2022/01/15 06:39:36;;;;;;;34.70;25.73;;;;;;;5.92;58.89;99226.56;8484796;28;20230;-68
2022/01/15 06:43:41;;;;;;;39.13;28.47;;;;;;;5.92;58.91;99226.56;8484665;28;20430;-68
2022/01/15 06:47:45;;;;;;;34.57;26.50;;;;;;;5.91;58.99;99230.88;8485300;28;20243;-68
2022/01/15 06:51:48;;;;;;;35.67;26.23;;;;;;;5.92;58.69;99229.16;8485088;28;20233;-68
2022/01/15 06:55:52;;;;;;;35.10;27.50;;;;;;;5.93;58.74;99224.00;8484740;28;20245;-68
2022/01/15 07:00:02;;;;;;;36.70;27.93;;;;;;;5.74;59.18;99219.81;8471454;28;20243;-68
2022/01/15 07:04:05;;;;;;;37.10;27.17;;;;;;;5.83;59.71;99215.50;8462668;28;20236;-67
2022/01/15 07:08:08;;;;;;;36.60;27.63;;;;;;;5.69;59.58;99206.97;8465876;28;20221;-68
2022/01/15 07:12:11;;;;;;;40.60;28.93;;;;;;;5.64;59.54;99213.88;8484541;28;20233;-67
2022/01/15 07:16:16;;;;;;;44.27;33.80;;;;;;;5.73;59.74;99212.97;8484178;28;20226;-67
2022/01/15 07:20:20;;;;;;;43.67;30.67;;;;;;;5.81;59.36;99208.66;8484382;28;20233;-67
2022/01/15 07:24:23;;;;;;;44.23;31.90;;;;;;;5.75;59.67;99204.41;8484531;28;20229;-67
2022/01/15 07:28:28;;;;;;;44.57;31.93;;;;;;;5.87;59.19;99209.47;8484110;28;20229;-68
2022/01/15 07:32:32;;;;;;;44.30;32.37;;;;;;;5.85;59.17;99202.63;8483642;28;20233;-67
2022/01/15 07:36:35;;;;;;;43.03;30.40;;;;;;;5.92;59.51;99212.03;8483183;28;20224;-67
2022/01/15 07:40:38;;;;;;;39.40;30.13;;;;;;;5.87;59.48;99211.19;8482546;28;20232;-67
2022/01/15 07:44:41;;;;;;;42.17;31.53;;;;;;;5.86;59.50;99202.63;8483130;28;20229;-68
2022/01/15 07:48:45;;;;;;;41.10;31.20;;;;;;;5.88;59.52;99205.16;8483072;28;20229;-68
2022/01/15 07:52:48;;;;;;;45.03;32.97;;;;;;;5.89;59.52;99204.31;8482980;28;20237;-68
2022/01/15 07:56:54;;;;;;;44.23;31.93;;;;;;;5.95;59.69;99200.84;8483159;28;20244;-68
2022/01/15 08:00:57;;;;;;;40.87;30.07;;;;;;;5.98;59.60;99199.16;8482835;28;20240;-67
2022/01/15 08:05:08;;;;;;;40.07;30.17;;;;;;;5.89;59.70;99209.47;8482018;28;20257;-67
2022/01/15 08:09:10;;;;;;;42.40;29.87;;;;;;;5.96;59.58;99205.16;8482612;28;20274;-67
2022/01/15 08:13:14;;;;;;;38.57;28.40;;;;;;;5.78;59.79;99203.53;8482827;28;20236;-67
2022/01/15 08:17:17;;;;;;;36.33;27.50;;;;;;;6.02;59.82;99200.00;8482464;28;20221;-67
2022/01/15 08:21:21;;;;;;;39.27;28.73;;;;;;;6.01;59.48;99193.13;8482347;28;20229;-67
2022/01/15 08:25:25;;;;;;;36.07;27.03;;;;;;;6.00;59.61;99191.44;8482109;28;20226;-67
2022/01/15 08:29:28;;;;;;;41.10;30.90;;;;;;;6.09;59.26;99196.50;8482315;28;20237;-67
2022/01/15 08:33:31;;;;;;;38.87;29.73;;;;;;;6.00;59.66;99200.00;8446891;28;20226;-68
2022/01/15 08:37:38;;;;;;;42.77;30.57;;;;;;;6.10;58.89;99203.38;8446641;28;20248;-68
2022/01/15 08:41:43;;;;;;;40.33;29.43;;;;;;;6.06;59.30;99191.41;8446511;28;20242;-67
2022/01/15 08:45:47;;;;;;;39.60;29.57;;;;;;;6.07;59.31;99193.97;8446681;28;20230;-68
2022/01/15 08:49:51;;;;;;;37.50;28.67;;;;;;;6.10;59.03;99198.22;8446789;28;20610;-68
2022/01/15 08:53:56;;;;;;;34.63;26.60;;;;;;;6.00;59.39;99194.84;8445613;28;20233;-67
2022/01/15 08:57:59;;;;;;;34.27;27.00;;;;;;;6.04;59.48;99203.41;8446398;28;20563;-67
2022/01/15 09:02:02;;;;;;;33.97;26.87;;;;;;;6.02;59.45;99187.13;8446653;28;20229;-67
2022/01/15 09:06:06;;;;;;;37.03;28.57;;;;;;;6.11;59.23;99199.06;8436885;28;20269;-68
2022/01/15 09:10:10;;;;;;;32.57;25.33;;;;;;;6.15;59.85;99196.47;8444089;28;20226;-68
2022/01/15 09:14:15;;;;;;;32.37;24.50;;;;;;;6.04;59.87;99199.13;8445151;28;20271;-67
2022/01/15 09:18:19;;;;;;;32.87;26.30;;;;;;;6.18;59.64;99200.75;8443252;28;20232;-68
2022/01/15 09:22:23;;;;;;;33.40;25.83;;;;;;;6.28;59.48;99192.09;8444869;28;20234;-67
2022/01/15 09:26:46;;;;;;;32.57;25.57;;;;;;;6.34;59.46;99197.22;8444157;28;20237;-67
2022/01/15 09:30:49;;;;;;;31.20;24.60;;;;;;;6.03;59.99;99196.53;8438590;28;20388;-68
2022/01/15 09:34:52;;;;;;;33.13;25.40;;;;;;;6.03;60.59;99197.38;8405592;28;1170604;-68
2022/01/15 09:38:56;;;;;;;33.37;25.70;;;;;;;6.02;60.77;99198.28;8457064;28;20263;-67
2022/01/15 09:43:01;;;;;;;29.80;23.33;;;;;;;6.06;61.12;99201.69;8465088;28;20426;-67
2022/01/15 09:47:04;;;;;;;28.30;22.53;;;;;;;5.95;60.89;99203.44;8461825;28;20226;-67
2022/01/15 09:51:08;;;;;;;31.47;24.53;;;;;;;6.30;59.47;99200.63;8462646;28;20237;-67
2022/01/15 09:55:12;;;;;;;28.20;22.83;;;;;;;6.26;60.44;99199.84;8475406;28;20435;-67
2022/01/15 09:59:20;;;;;;;31.07;23.23;;;;;;;6.44;59.71;99193.69;8479990;28;20225;-67
2022/01/15 10:03:23;;;;;;;28.73;23.17;;;;;;;6.43;59.04;99197.09;8480006;28;20233;-67
2022/01/15 10:07:28;;;;;;;28.17;23.00;;;;;;;6.62;58.94;99189.25;8479975;28;20232;-67
2022/01/15 10:11:45;;;;;;;30.43;23.83;;;;;;;6.30;59.53;99185.19;8469238;28;20229;-69
2022/01/15 10:15:51;;;;;;;30.17;24.07;;;;;;;6.14;60.94;99175.91;8464921;28;20241;-67
2022/01/15 10:19:55;;;;;;;29.27;23.47;;;;;;;6.51;60.30;99176.47;8461912;28;20244;-67
2022/01/15 10:24:00;;;;;;;27.80;22.77;;;;;;;6.73;59.98;99171.13;8462146;28;20566;-67
2022/01/15 10:28:03;;;;;;;28.93;22.27;;;;;;;6.49;58.71;99180.75;8464572;28;20221;-67
2022/01/15 10:32:13;;;;;;;27.50;22.10;;;;;;;6.46;59.30;99173.09;8444990;28;20253;-67
2022/01/15 10:36:21;;;;;;;28.57;22.80;;;;;;;6.82;59.17;99171.06;8451697;28;20222;-67
2022/01/15 10:40:27;;;;;;;28.93;22.80;;;;;;;6.90;58.83;99170.97;8461867;28;20242;-67
2022/01/15 10:44:33;;;;;;;27.13;22.67;;;;;;;7.04;58.86;99159.66;8485081;28;20236;-67
2022/01/15 10:48:40;;;;;;;31.67;23.37;;;;;;;6.98;58.49;99158.84;8484581;28;20233;-68
2022/01/15 10:52:43;;;;;;;31.20;23.80;;;;;;;7.36;58.50;99149.84;8485307;28;20237;-67
2022/01/15 10:57:05;;;;;;;38.97;27.47;;;;;;;7.21;58.35;99143.97;8485057;28;20234;-67
2022/01/15 11:01:12;;;;;;;31.33;24.00;;;;;;;7.31;58.71;99141.28;8484755;28;20237;-67
2022/01/15 11:05:29;;;;;;;37.67;25.83;;;;;;;7.27;58.46;99126.75;8484567;28;20232;-67
2022/01/15 11:09:34;;;;;;;38.63;26.37;;;;;;;7.19;59.09;99124.25;8484282;28;20221;-68
2022/01/15 11:13:39;;;;;;;29.90;23.30;;;;;;;7.06;59.31;99118.41;8484568;28;20420;-67
2022/01/15 11:17:42;;;;;;;30.13;23.60;;;;;;;7.28;58.44;99116.44;8484067;28;20240;-67
2022/01/15 11:21:47;;;;;;;43.90;28.53;;;;;;;7.24;58.73;99115.59;8483736;28;20237;-67
2022/01/15 11:25:51;;;;;;;45.43;28.17;;;;;;;7.28;59.53;99113.00;8476880;28;20424;-67
2022/01/15 11:29:57;;;;;;;31.33;24.27;;;;;;;7.47;58.77;99105.88;8483817;28;20404;-67
2022/01/15 11:34:01;;;;;;;27.37;22.17;;;;;;;7.20;58.13;99095.91;8483664;28;20237;-67
2022/01/15 11:38:06;;;;;;;28.37;22.03;;;;;;;7.52;57.91;99094.63;8483015;28;20320;-67
2022/01/15 11:42:25;;;;;;;28.17;23.13;;;;;;;7.68;57.86;99091.84;8483463;28;20229;-68
2022/01/15 11:46:31;;;;;;;28.03;22.03;;;;;;;7.78;58.08;99081.34;8483503;28;20422;-68
2022/01/15 11:50:34;;;;;;;28.73;22.97;;;;;;;7.69;57.86;99076.34;8449376;28;20222;-68
2022/01/15 11:54:40;;;;;;;27.63;21.13;;;;;;;7.85;57.25;99074.38;8449718;28;20233;-68
2022/01/15 11:58:43;;;;;;;26.43;21.47;;;;;;;7.78;57.03;99076.19;8464458;28;20241;-68
2022/01/15 12:03:00;;;;;;;27.03;19.97;;;;;;;7.52;56.15;99065.41;8463947;28;20583;-68
2022/01/15 12:07:22;;;;;;;23.67;19.87;;;;;;;7.96;55.59;99062.16;8482925;28;20233;-67
2022/01/15 12:11:33;;;;;;;20.83;17.93;;;;;;;7.74;56.91;99060.81;8482956;28;20520;-67
2022/01/15 12:15:36;;;;;;;13.67;11.20;;;;;;;7.67;54.50;99054.88;8481912;28;20218;-68
2022/01/15 12:19:40;;;;;;;13.90;11.87;;;;;;;7.42;54.89;99051.81;8482209;28;20236;-68
2022/01/15 12:23:43;;;;;;;16.20;12.97;;;;;;;7.70;54.49;99033.38;8482291;28;20233;-67
2022/01/15 12:27:49;;;;;;;16.20;13.10;;;;;;;7.82;55.10;99033.16;8482012;28;20225;-67
2022/01/15 12:31:52;;;;;;;15.03;13.30;;;;;;;7.33;55.86;99032.19;8478949;28;20229;-68
2022/01/15 12:35:56;;;;;;;17.27;14.47;;;;;;;7.41;54.68;99025.19;8464001;28;20237;-68
2022/01/15 12:40:03;;;;;;;15.80;13.10;;;;;;;7.20;55.79;99020.34;8461246;28;20547;-68
2022/01/15 12:44:07;;;;;;;18.03;14.80;;;;;;;7.16;56.23;99013.50;8481653;28;20225;-68
2022/01/15 12:48:15;;;;;;;17.93;14.60;;;;;;;7.11;56.37;99011.00;8481345;28;20225;-68
2022/01/15 12:52:23;;;;;;;19.67;13.63;;;;;;;6.80;56.11;98998.53;8481386;28;20236;-67
2022/01/15 12:56:27;;;;;;;15.67;12.03;;;;;;;6.81;56.42;98995.09;8481443;28;20229;-67
2022/01/15 13:00:33;;;;;;;13.70;10.30;;;;;;;6.74;56.36;98993.47;8481372;28;20225;-68
2022/01/15 13:04:36;;;;;;;11.57;9.30;;;;;;;7.13;55.21;98991.25;8480858;28;20232;-67
2022/01/15 13:08:44;;;;;;;11.37;8.37;;;;;;;6.68;55.20;98980.66;8481030;28;20248;-68
2022/01/15 13:12:47;;;;;;;11.13;8.00;;;;;;;6.48;56.04;98983.50;8474114;28;20557;-67
2022/01/15 13:16:51;;;;;;;12.63;9.60;;;;;;;6.21;55.92;98969.22;8447444;28;20230;-67
2022/01/15 13:20:55;;;;;;;12.17;8.73;;;;;;;6.39;54.62;98970.72;8447018;28;20234;-67
2022/01/15 13:25:05;;;;;;;7.77;6.73;;;;;;;6.28;55.95;98968.25;8447503;28;20242;-67
2022/01/15 13:29:11;;;;;;;8.70;7.23;;;;;;;6.87;55.50;98954.69;8447498;28;20226;-67
2022/01/15 13:33:16;;;;;;;10.87;7.60;;;;;;;6.79;54.42;98955.63;8450713;28;20403;-67
2022/01/15 13:37:21;;;;;;;13.47;9.10;;;;;;;6.70;54.80;98949.75;8447636;28;20271;-68
2022/01/15 13:41:26;;;;;;;16.83;11.33;;;;;;;7.08;53.76;98954.38;8461988;28;20236;-68
2022/01/15 13:45:32;;;;;;;7.83;6.07;;;;;;;7.09;53.07;98947.53;8462488;28;20229;-67
2022/01/15 13:53:05;;;;;;;7.97;6.80;;;;;;;6.63;53.24;98943.84;8462057;28;20403;-68
2022/01/15 13:54:07;;;;;;;7.80;5.83;;;;;;;6.75;53.38;98943.69;8473809;28;20239;-67
2022/01/15 13:58:12;;;;;;;8.03;5.83;;;;;;;6.21;55.06;98939.19;8471524;28;20236;-67
2022/01/15 14:02:15;;;;;;;6.40;5.70;;;;;;;6.39;54.47;98940.69;8469830;28;20535;-66
2022/01/15 14:06:21;;;;;;;5.50;5.00;;;;;;;6.68;54.10;98933.47;8452571;28;20230;-66
2022/01/15 14:10:26;;;;;;;8.00;5.10;;;;;;;6.98;52.48;98934.78;8452595;28;20230;-66
2022/01/15 14:14:30;;;;;;;9.03;5.57;;;;;;;7.28;52.18;98922.34;8447388;28;20240;-67
2022/01/15 14:18:43;;;;;;;6.17;5.40;;;;;;;6.81;52.64;98929.88;8418482;28;20445;-67
2022/01/15 14:22:54;;;;;;;6.00;5.03;;;;;;;7.27;52.62;98933.50;8418677;28;20255;-67
2022/01/15 14:26:59;;;;;;;7.37;5.50;;;;;;;6.78;52.91;98922.22;8418333;28;20227;-67
2022/01/15 14:31:02;;;;;;;7.03;5.37;;;;;;;7.22;52.57;98923.28;8418366;28;20231;-67
2022/01/15 14:35:06;;;;;;;6.70;5.67;;;;;;;7.42;52.29;98913.50;8418456;28;20377;-67
2022/01/15 14:39:10;;;;;;;9.87;8.40;;;;;;;6.54;53.32;98919.06;8418183;28;20428;-67
2022/01/15 14:43:13;;;;;;;6.20;4.97;;;;;;;6.36;53.28;98920.16;8417818;28;20231;-67
2022/01/15 14:47:16;;;;;;;6.30;5.70;;;;;;;6.71;52.57;98924.00;8418069;28;20240;-68
2022/01/15 14:51:19;;;;;;;11.30;7.67;;;;;;;6.83;52.25;98921.28;8418421;28;20231;-67
2022/01/15 14:55:24;;;;;;;7.00;5.83;;;;;;;6.82;52.20;98918.72;8417994;28;20565;-67
2022/01/15 14:59:27;;;;;;;42.37;22.83;;;;;;;6.61;52.44;98923.28;8417755;28;20491;-67
2022/01/15 15:03:31;;;;;;;23.00;15.37;;;;;;;6.72;52.13;98919.69;8417380;28;20241;-68
2022/01/15 15:07:34;;;;;;;8.87;6.40;;;;;;;6.97;52.00;98920.22;8417399;28;20218;-68
2022/01/15 15:11:39;;;;;;;12.20;7.53;;;;;;;7.22;51.79;98911.25;8417056;28;20226;-68
2022/01/15 15:15:42;;;;;;;14.40;10.20;;;;;;;7.14;52.04;98913.09;8417148;28;20234;-67
2022/01/15 15:19:46;;;;;;;7.40;5.20;;;;;;;7.20;52.08;98912.16;8417132;28;20238;-67
2022/01/15 15:23:50;;;;;;;8.07;5.43;;;;;;;7.21;52.17;98911.25;8417053;28;20231;-67
2022/01/15 15:27:54;;;;;;;11.50;6.50;;;;;;;8.07;76.17;98914.91;8475954;28;20233;-75
2022/01/15 15:31:57;;;;;;;12.40;6.10;;;;;;;9.83;62.22;98906.69;8483238;28;20240;-73
2022/01/15 15:36:00;;;;;;;10.30;6.40;;;;;;;10.59;51.74;98897.72;8483793;28;20229;-74
2022/01/15 15:40:05;;;;;;;8.07;6.60;;;;;;;8.82;49.20;98906.56;8483446;28;20532;-67
2022/01/15 15:44:09;;;;;;;7.90;6.27;;;;;;;8.31;50.51;98900.69;8483382;28;20242;-67
2022/01/15 15:48:12;;;;;;;10.23;7.60;;;;;;;7.98;50.72;98895.31;8483508;28;20237;-67
2022/01/15 15:52:15;;;;;;;11.30;9.23;;;;;;;7.68;51.98;98893.31;8482935;28;20228;-67
2022/01/15 15:56:19;;;;;;;10.93;9.30;;;;;;;7.47;52.22;98889.38;8483089;28;20229;-67
2022/01/15 16:00:23;;;;;;;14.77;11.57;;;;;;;7.33;52.98;98887.00;8483041;28;20236;-67
2022/01/15 16:04:27;;;;;;;11.83;10.43;;;;;;;7.12;52.92;98888.22;8482081;28;20438;-67
2022/01/15 16:08:30;;;;;;;11.80;9.73;;;;;;;6.92;53.36;98894.53;8482136;28;20514;-67
2022/01/15 16:12:34;;;;;;;9.37;7.63;;;;;;;6.75;53.35;98905.06;8481924;28;20225;-67
2022/01/15 16:16:39;;;;;;;18.47;15.63;;;;;;;6.79;53.04;98895.56;8482330;28;20225;-67
2022/01/15 16:20:42;;;;;;;11.43;9.53;;;;;;;6.71;52.92;98900.00;8481765;28;20225;-67
2022/01/15 16:24:45;;;;;;;54.80;26.47;;;;;;;6.68;53.40;98911.16;8481303;28;20237;-67
2022/01/15 16:28:48;;;;;;;56.23;28.90;;;;;;;6.60;53.38;98907.84;8481774;28;20469;-67
2022/01/15 16:32:53;;;;;;;39.00;19.93;;;;;;;6.51;52.89;98905.38;8481384;28;20252;-67
2022/01/15 16:36:58;;;;;;;18.40;11.20;;;;;;;6.37;53.38;98893.56;8481667;28;20225;-66
2022/01/15 16:41:04;;;;;;;10.30;6.80;;;;;;;6.33;53.57;98891.03;8481496;28;20509;-66
2022/01/15 16:45:08;;;;;;;12.20;8.50;;;;;;;6.21;53.73;98892.06;8481823;28;20229;-66
2022/01/15 16:49:12;;;;;;;9.80;6.47;;;;;;;6.16;53.42;98893.81;8481132;28;20419;-67
2022/01/15 16:53:15;;;;;;;13.87;9.10;;;;;;;6.05;53.54;98889.66;8480897;28;20233;-66
2022/01/15 16:57:18;;;;;;;34.50;19.13;;;;;;;5.95;54.02;98890.63;8481251;28;20229;-67
2022/01/15 17:01:22;;;;;;;20.73;12.97;;;;;;;6.01;54.86;98890.53;8479928;28;20244;-66
2022/01/15 17:05:27;;;;;;;16.83;12.07;;;;;;;5.97;54.44;98891.44;8480487;28;20410;-67
2022/01/15 17:09:30;;;;;;;15.37;10.40;;;;;;;5.90;54.42;98881.22;8480176;28;20248;-67
2022/01/15 17:13:33;;;;;;;15.23;10.90;;;;;;;5.84;54.43;98877.84;8467631;28;20226;-67
2022/01/15 17:17:37;;;;;;;16.97;12.50;;;;;;;5.75;54.73;98875.38;8447152;28;20225;-67
2022/01/15 17:21:42;;;;;;;20.90;15.30;;;;;;;5.78;54.19;98869.34;8447075;28;20233;-67
2022/01/15 17:25:45;;;;;;;21.93;17.87;;;;;;;5.68;54.35;98872.00;8446650;28;20238;-67
2022/01/15 17:29:49;;;;;;;14.37;12.40;;;;;;;5.76;54.41;98863.38;8447124;28;20237;-67
2022/01/15 17:33:52;;;;;;;14.67;12.60;;;;;;;5.61;54.37;98874.66;8446964;28;20410;-67
2022/01/15 17:37:57;;;;;;;22.87;19.63;;;;;;;5.65;53.81;98866.03;8449697;28;20225;-67
2022/01/15 17:42:01;;;;;;;88.77;67.20;;;;;;;5.57;54.43;98867.84;8477133;28;20232;-67
2022/01/15 17:46:05;;;;;;;34.03;27.70;;;;;;;5.54;54.66;98866.19;8487569;28;20229;-67
2022/01/15 17:50:09;;;;;;;20.33;17.07;;;;;;;5.48;54.61;98863.63;8487503;28;20235;-67
2022/01/15 17:54:13;;;;;;;16.87;14.40;;;;;;;5.55;54.49;98859.31;8486931;28;20240;-67
2022/01/15 17:58:16;;;;;;;19.27;17.00;;;;;;;5.58;53.92;98854.13;8487318;28;20229;-67
2022/01/15 18:02:20;;;;;;;19.63;15.80;;;;;;;5.52;54.28;98854.19;8487595;28;20379;-67
2022/01/15 18:06:23;;;;;;;19.30;16.70;;;;;;;5.54;54.04;98849.88;8486960;28;20237;-67
2022/01/15 18:10:28;;;;;;;20.53;17.67;;;;;;;5.37;54.36;98840.66;8486639;28;20225;-67
2022/01/15 18:14:31;;;;;;;21.37;18.37;;;;;;;5.40;53.93;98832.88;8486336;28;20225;-71
2022/01/15 18:18:34;;;;;;;27.77;23.70;;;;;;;5.33;54.77;98832.97;8486583;28;20236;-67
2022/01/15 18:22:37;;;;;;;29.57;25.07;;;;;;;5.31;54.88;98832.13;8486731;28;20226;-67
2022/01/15 18:26:43;;;;;;;31.10;24.93;;;;;;;5.26;54.69;98829.63;8485665;28;20240;-67
2022/01/15 18:30:48;;;;;;;32.00;25.40;;;;;;;5.16;54.88;98822.84;8485753;28;20245;-67
2022/01/15 18:34:53;;;;;;;28.13;24.63;;;;;;;5.25;54.67;98820.19;8485841;28;20524;-67
2022/01/15 18:38:56;;;;;;;33.63;26.93;;;;;;;5.23;54.50;98820.19;8485991;28;20226;-67
2022/01/15 18:43:00;;;;;;;36.27;27.33;;;;;;;5.22;54.43;98810.81;8485349;28;20240;-67
2022/01/15 18:47:04;;;;;;;39.03;27.63;;;;;;;5.33;54.00;98817.56;8485490;28;20225;-67
2022/01/15 18:51:07;;;;;;;63.40;41.57;;;;;;;5.25;54.25;98815.94;8485052;28;20386;-67
2022/01/15 18:55:11;;;;;;;67.13;45.70;;;;;;;5.15;54.35;98811.72;8485303;28;20229;-67
2022/01/15 18:59:17;;;;;;;73.70;47.80;;;;;;;5.22;54.08;98807.41;8485184;28;20433;-67
2022/01/15 19:03:19;;;;;;;74.33;44.37;;;;;;;5.15;54.10;98808.31;8484861;28;20226;-67
2022/01/15 19:07:23;;;;;;;44.50;29.25;;;;;;;7.72;78.03;98820.19;8475474;28;20429;-73
2022/01/15 19:11:27;;;;;;;51.87;34.83;;;;;;;8.90;54.73;98817.66;8478097;28;20528;-70